Time;durP1;ratioP1;P1;durP2;ratioP2;P2;SDS_P1;SDS_P2;PMS_P1;PMS_P2;Temp;Humidity;BMP_temperature;BMP_pressure;BME280_temperature;BME280_humidity;BME280_pressure;Samples;Min_cycle;Max_cycle;Signal;HPM_P1;HPM_P2
2022/03/23 00:02:03;;;;;;;21.40;12.87;;;8.10;45.20;;;8.64;39.86;98811.63;5007083;28;20335;-45
2022/03/23 00:04:31;;;;;;;18.97;12.53;;;8.00;45.20;;;8.61;39.90;98819.84;5007111;28;20046;-46
2022/03/23 00:06:59;;;;;;;18.40;11.37;;;8.00;45.50;;;8.57;40.00;98808.63;5006969;28;20056;-45
2022/03/23 00:09:27;;;;;;;20.87;11.90;;;8.00;45.40;;;8.55;39.90;98810.56;5006621;28;20048;-43
2022/03/23 00:12:15;;;;;;;18.93;12.03;;;7.90;45.20;;;8.56;39.86;98812.22;5007554;28;20158;-45
2022/03/23 00:14:43;;;;;;;19.23;12.97;;;8.00;45.10;;;8.55;39.97;98807.91;5007070;28;20050;-45
2022/03/23 00:17:11;;;;;;;18.50;12.83;;;8.00;45.00;;;8.54;39.93;98813.31;5007295;28;20045;-45
2022/03/23 00:19:39;;;;;;;18.03;11.37;;;8.00;45.30;;;8.52;39.77;98812.59;5006639;28;20056;-46
2022/03/23 00:22:07;;;;;;;19.03;12.43;;;7.90;45.10;;;8.51;39.62;98814.41;5006284;28;20229;-45
2022/03/23 00:24:34;;;;;;;22.20;12.83;;;8.00;44.90;;;8.48;39.88;98804.88;5007395;28;20076;-44
2022/03/23 00:27:02;;;;;;;16.47;11.63;;;7.90;45.10;;;8.44;39.90;98803.41;5006389;28;20075;-43
2022/03/23 00:29:31;;;;;;;17.83;12.33;;;7.90;45.20;;;8.44;39.81;98811.38;5004747;28;20081;-46
2022/03/23 00:31:59;;;;;;;24.23;13.50;;;7.90;45.10;;;8.39;40.05;98810.00;5020063;28;20062;-46
2022/03/23 00:34:27;;;;;;;20.07;11.20;;;7.80;45.50;;;8.36;40.18;98811.09;5004835;28;20045;-43
2022/03/23 00:36:54;;;;;;;18.00;11.53;;;7.80;45.30;;;8.36;39.68;98815.56;5007019;28;20064;-43
2022/03/23 00:39:22;;;;;;;20.10;12.17;;;7.70;45.00;;;8.35;39.79;98808.56;5004270;28;20058;-44
2022/03/23 00:41:52;;;;;;;18.13;12.87;;;7.80;44.90;;;8.36;39.77;98812.91;5006096;28;20053;-42
2022/03/23 00:44:20;;;;;;;20.77;12.83;;;7.80;44.60;;;8.36;39.70;98813.75;5006570;28;20050;-43
2022/03/23 00:46:50;;;;;;;19.60;11.57;;;7.90;44.30;;;8.38;39.58;98818.94;5005698;28;20046;-43
2022/03/23 00:49:18;;;;;;;13.90;11.07;;;7.80;44.20;;;8.37;39.55;98814.59;5006208;28;20233;-45
2022/03/23 00:51:46;;;;;;;19.10;12.20;;;7.80;44.20;;;8.36;39.94;98818.22;5007480;28;20063;-42
2022/03/23 00:54:14;;;;;;;18.47;11.10;;;7.80;44.80;;;8.35;39.88;98814.72;5006122;28;20149;-43
2022/03/23 00:56:42;;;;;;;18.00;12.17;;;7.80;44.60;;;8.32;39.96;98824.72;5006684;28;20064;-45
2022/03/23 00:59:10;;;;;;;15.73;11.30;;;7.80;45.00;;;8.26;39.74;98818.09;5003975;28;20067;-44
2022/03/23 01:01:38;;;;;;;18.27;11.63;;;7.70;45.20;;;8.21;40.20;98814.94;5005569;28;20348;-45
2022/03/23 01:04:06;;;;;;;17.43;12.13;;;7.60;45.50;;;8.11;40.02;98808.66;5004317;28;20168;-44
2022/03/23 01:06:40;;;;;;;18.23;11.85;;;7.40;45.70;;;8.07;40.29;98823.94;5005504;28;20263;-44
2022/03/23 01:09:08;;;;;;;21.77;11.03;;;7.40;45.90;;;8.03;40.34;98817.19;5005103;28;20098;-45
2022/03/23 01:11:37;;;;;;;18.73;10.97;;;7.40;46.10;;;7.99;40.53;98811.28;5004637;28;20057;-42
2022/03/23 01:14:06;;;;;;;16.50;11.13;;;7.30;46.10;;;7.97;40.55;98817.63;5006613;28;20057;-45
2022/03/23 01:16:35;;;;;;;17.30;11.77;;;7.30;46.20;;;7.92;40.47;98809.19;5020499;28;20559;-44
2022/03/23 01:19:03;;;;;;;18.10;12.00;;;7.30;46.20;;;7.88;40.90;98812.06;5001324;28;20559;-43
2022/03/23 01:21:32;;;;;;;21.53;11.13;;;7.20;46.40;;;7.84;40.96;98817.72;5021081;28;20252;-44
2022/03/23 01:24:00;;;;;;;16.10;12.17;;;7.20;46.50;;;7.81;40.56;98813.50;5006336;28;20056;-46
2022/03/23 01:26:28;;;;;;;18.97;11.43;;;7.20;46.70;;;7.76;41.10;98815.66;5006376;28;20060;-43
2022/03/23 01:28:56;;;;;;;19.37;12.77;;;7.10;46.80;;;7.71;41.13;98815.16;5004540;28;20236;-44
2022/03/23 01:31:24;;;;;;;18.70;11.67;;;7.00;47.00;;;7.70;40.75;98808.16;5003864;28;20371;-44
2022/03/23 01:33:59;;;;;;;20.73;13.30;;;7.10;46.80;;;7.72;40.81;98810.72;5002941;28;20064;-44
2022/03/23 01:36:28;;;;;;;20.37;11.67;;;7.10;46.60;;;7.72;40.63;98810.72;5005617;28;20053;-44
2022/03/23 01:38:59;;;;;;;19.83;13.87;;;7.10;46.60;;;7.72;41.52;98810.72;5005403;28;20720;-43
2022/03/23 01:41:27;;;;;;;16.30;11.87;;;7.10;46.90;;;7.68;41.18;98800.31;5006177;28;20046;-43
2022/03/23 01:43:55;;;;;;;21.10;12.63;;;7.10;46.80;;;7.68;41.00;98807.44;5004669;28;20056;-44
2022/03/23 01:46:26;;;;;;;24.63;13.43;;;7.10;46.80;;;7.67;40.91;98805.72;4987181;28;20063;-44
2022/03/23 01:48:55;;;;;;;22.70;12.57;;;7.10;46.80;;;7.68;40.97;98807.44;5005393;28;20072;-43
2022/03/23 01:51:23;;;;;;;18.30;12.90;;;7.10;46.80;;;7.67;41.00;98801.28;5002804;28;20315;-45
2022/03/23 01:53:51;;;;;;;19.87;12.63;;;7.10;46.80;;;7.68;40.78;98797.66;5005033;28;20049;-44
2022/03/23 01:56:22;;;;;;;21.93;12.83;;;7.10;46.80;;;7.66;40.96;98796.09;5003062;28;20057;-43
2022/03/23 01:58:50;;;;;;;23.13;12.50;;;7.10;46.80;;;7.63;41.26;98793.66;5003604;28;20054;-44
2022/03/23 02:01:19;;;;;;;19.40;12.20;;;7.00;47.00;;;7.60;41.38;98800.06;5003993;28;20054;-44
2022/03/23 02:03:48;;;;;;;24.33;12.67;;;7.00;47.30;;;7.59;41.11;98801.00;5004054;28;20180;-45
2022/03/23 02:06:16;;;;;;;18.43;11.03;;;6.90;47.40;;;7.55;41.32;98794.25;5003680;28;20050;-44
2022/03/23 02:08:45;;;;;;;18.67;12.17;;;6.90;47.30;;;7.55;41.52;98806.66;5003234;28;20305;-44
2022/03/23 02:11:14;;;;;;;22.80;12.90;;;6.90;47.40;;;7.52;41.50;98798.91;5019680;28;20058;-44
2022/03/23 02:13:42;;;;;;;17.70;11.97;;;6.90;47.50;;;7.51;41.30;98806.03;5004073;28;20061;-44
2022/03/23 02:16:10;;;;;;;18.83;11.97;;;6.90;47.30;;;7.50;41.41;98799.03;5002536;28;20064;-44
2022/03/23 02:18:38;;;;;;;19.53;12.63;;;6.90;47.20;;;7.47;41.08;98797.47;5005005;28;20054;-45
2022/03/23 02:21:06;;;;;;;19.93;12.00;;;6.80;47.00;;;7.44;41.54;98805.66;4986344;28;20060;-45
2022/03/23 02:23:35;;;;;;;19.67;12.13;;;6.80;47.20;;;7.41;41.76;98803.22;5003337;28;20221;-44
2022/03/23 02:26:03;;;;;;;18.93;12.87;;;6.80;47.20;;;7.39;41.03;98793.69;5004155;28;20056;-46
2022/03/23 02:28:31;;;;;;;21.47;11.63;;;6.80;47.10;;;7.34;41.36;98801.13;5004497;28;20054;-44
2022/03/23 02:31:01;;;;;;;17.23;11.90;;;6.70;47.60;;;7.33;41.44;98804.72;5004274;28;20502;-44
2022/03/23 02:33:29;;;;;;;20.20;11.60;;;6.60;47.30;;;7.32;41.58;98806.53;5004550;28;20367;-45
2022/03/23 02:35:57;;;;;;;23.17;11.40;;;6.70;47.60;;;7.27;42.01;98801.59;5004905;28;20052;-45
2022/03/23 02:38:25;;;;;;;19.53;11.90;;;6.60;47.80;;;7.22;41.37;98802.88;5005731;28;20148;-44
2022/03/23 02:40:53;;;;;;;19.67;12.43;;;6.60;47.80;;;7.17;42.13;98795.25;5004789;28;20053;-43
2022/03/23 02:43:21;;;;;;;21.30;12.47;;;6.50;48.10;;;7.17;42.19;98805.84;5004379;28;20049;-44
2022/03/23 02:45:49;;;;;;;19.00;12.33;;;6.50;48.10;;;7.13;42.14;98806.19;5004879;28;20054;-44
2022/03/23 02:48:17;;;;;;;23.77;13.07;;;6.50;48.40;;;7.08;42.02;98801.22;5005162;28;20052;-43
2022/03/23 02:50:45;;;;;;;18.90;12.50;;;6.40;48.90;;;7.04;42.47;98805.06;5003523;28;20670;-43
2022/03/23 03:02:21;;;;;;;21.57;13.10;;;6.40;50.00;;;6.98;43.29;98802.81;5007678;28;20352;-43
2022/03/23 03:04:49;;;;;;;18.93;13.10;;;6.30;50.40;;;6.94;42.79;98804.00;5008157;28;20166;-46
2022/03/23 03:07:20;;;;;;;17.80;12.13;;;6.30;49.60;;;6.93;42.60;98808.47;5008696;28;20057;-44
2022/03/23 03:09:48;;;;;;;19.13;12.20;;;6.30;50.20;;;6.89;42.88;98815.78;5008966;28;20057;-45
2022/03/23 03:12:17;;;;;;;19.30;12.47;;;6.30;49.70;;;6.90;42.46;98814.84;5007943;28;20058;-44
2022/03/23 03:14:45;;;;;;;18.80;12.77;;;6.30;49.60;;;6.92;42.28;98820.03;5009192;28;20045;-48
2022/03/23 03:17:12;;;;;;;21.17;12.73;;;6.40;48.90;;;6.92;43.12;98819.16;5007369;28;20136;-44
2022/03/23 03:19:40;;;;;;;24.63;15.13;;;6.30;49.40;;;6.86;42.65;98816.00;5008095;28;20050;-44
2022/03/23 03:22:08;;;;;;;18.33;12.73;;;6.20;49.50;;;6.81;42.64;98815.47;5008411;28;20367;-46
2022/03/23 03:24:37;;;;;;;23.23;13.50;;;6.20;50.10;;;6.78;42.91;98825.44;5007418;28;20046;-45
2022/03/23 03:27:04;;;;;;;23.27;13.67;;;6.10;50.10;;;6.78;43.24;98825.44;5008076;28;20057;-49
2022/03/23 03:29:32;;;;;;;21.10;13.90;;;6.10;49.90;;;6.77;43.50;98818.47;5008163;28;20111;-44
2022/03/23 03:32:00;;;;;;;22.50;13.33;;;6.20;49.90;;;6.78;43.06;98820.16;5007498;28;20083;-46
2022/03/23 03:34:28;;;;;;;23.93;13.13;;;6.20;49.90;;;6.77;43.18;98821.13;5006229;28;20053;-47
2022/03/23 03:36:56;;;;;;;20.23;12.90;;;6.10;50.00;;;6.75;43.56;98823.84;5007117;28;20046;-44
2022/03/23 03:39:23;;;;;;;20.67;12.57;;;6.10;50.10;;;6.73;43.46;98820.47;5007967;28;20046;-45
2022/03/23 03:41:52;;;;;;;19.33;11.67;;;6.10;50.70;;;6.67;43.54;98827.03;5007894;28;20060;-45
2022/03/23 03:44:19;;;;;;;23.27;12.63;;;6.10;50.30;;;6.65;43.14;98828.97;5007382;28;20046;-44
2022/03/23 03:46:47;;;;;;;21.37;12.30;;;6.00;50.20;;;6.64;43.27;98829.91;5007159;28;20076;-45
2022/03/23 03:49:15;;;;;;;19.27;11.80;;;6.00;50.20;;;6.60;43.15;98822.28;5006277;28;20168;-46
2022/03/23 03:51:43;;;;;;;22.10;14.00;;;6.00;50.20;;;6.58;42.96;98827.69;5006851;28;20343;-43
2022/03/23 03:54:11;;;;;;;19.73;12.63;;;6.00;50.20;;;6.55;43.09;98825.25;5006900;28;20059;-48
2022/03/23 03:56:39;;;;;;;20.30;11.57;;;6.00;50.50;;;6.54;44.09;98839.44;5006760;28;20096;-45
2022/03/23 03:59:07;;;;;;;19.63;12.70;;;5.90;51.00;;;6.45;43.38;98830.31;5006908;28;20221;-45
2022/03/23 04:01:35;;;;;;;19.30;14.53;;;5.80;51.00;;;6.44;44.09;98838.38;5006903;28;20050;-44
2022/03/23 04:04:03;;;;;;;20.53;12.80;;;5.80;51.00;;;6.41;43.46;98833.31;5007317;28;20049;-46
2022/03/23 04:06:31;;;;;;;21.87;14.13;;;5.70;51.00;;;6.40;43.99;98831.63;5006416;28;20050;-47
2022/03/23 04:08:59;;;;;;;23.47;13.27;;;5.80;51.10;;;6.39;43.61;98829.91;5008276;28;20057;-45
2022/03/23 04:11:26;;;;;;;19.70;12.97;;;5.80;51.00;;;6.38;44.00;98833.50;5005707;28;20068;-46
2022/03/23 04:13:54;;;;;;;22.40;14.70;;;5.80;51.00;;;6.34;43.77;98829.38;5007136;28;20077;-45
2022/03/23 04:16:22;;;;;;;21.83;14.23;;;5.70;51.30;;;6.28;44.54;98838.56;5007134;28;20061;-47
2022/03/23 04:18:50;;;;;;;19.17;12.90;;;5.60;52.20;;;6.18;44.16;98829.59;5006696;28;20053;-46
2022/03/23 04:21:18;;;;;;;22.03;14.83;;;5.40;52.20;;;6.12;44.83;98830.84;5005828;28;20073;-45
2022/03/23 04:23:46;;;;;;;24.60;14.00;;;5.40;52.50;;;6.10;44.11;98835.38;5005985;28;20249;-45
2022/03/23 04:26:14;;;;;;;25.33;14.90;;;5.40;52.50;;;6.08;44.47;98830.19;5007072;28;20181;-45
2022/03/23 04:28:41;;;;;;;23.27;13.77;;;5.40;52.10;;;6.10;44.71;98832.75;5007047;28;20058;-45
2022/03/23 04:31:09;;;;;;;22.93;13.17;;;5.50;52.40;;;6.09;44.84;98829.25;5005411;28;20050;-49
2022/03/23 04:33:37;;;;;;;23.90;13.20;;;5.40;52.20;;;6.08;44.98;98832.00;5006933;28;20251;-46
2022/03/23 04:36:06;;;;;;;20.30;12.90;;;5.40;52.20;;;6.07;44.66;98840.91;5006000;28;20333;-46
2022/03/23 04:38:33;;;;;;;19.53;12.57;;;5.50;51.90;;;6.10;44.53;98835.38;5006427;28;20457;-46
2022/03/23 04:41:04;;;;;;;26.20;13.90;;;5.50;51.20;;;6.13;44.07;98837.84;5006787;28;20062;-44
2022/03/23 04:43:34;;;;;;;23.37;14.27;;;5.50;51.10;;;6.13;44.28;98842.25;5006838;28;20057;-45
2022/03/23 04:46:02;;;;;;;18.23;12.23;;;5.50;51.20;;;6.13;43.58;98839.63;5007022;28;20049;-45
2022/03/23 04:48:30;;;;;;;18.23;13.17;;;5.50;51.30;;;6.08;43.78;98840.78;5005849;28;20049;-45
2022/03/23 04:50:58;;;;;;;38.20;22.73;;;5.50;51.20;;;6.10;43.76;98835.38;5006596;28;20049;-48
2022/03/23 04:53:26;;;;;;;32.17;22.90;;;5.50;51.30;;;6.11;44.03;98847.69;5006142;28;20352;-45
2022/03/23 04:55:54;;;;;;;18.60;13.43;;;5.50;51.20;;;6.09;43.83;98845.13;5006507;28;20097;-48
2022/03/23 04:58:21;;;;;;;18.47;11.93;;;5.40;51.50;;;6.07;44.06;98849.69;5006712;28;20062;-46
2022/03/23 05:00:50;;;;;;;21.87;12.90;;;5.40;51.70;;;6.02;45.07;98848.28;5005231;28;20056;-45
2022/03/23 05:03:18;;;;;;;19.93;13.40;;;5.40;52.00;;;5.97;45.06;98853.91;5005194;28;20056;-47
2022/03/23 05:05:46;;;;;;;17.87;12.17;;;5.30;53.20;;;5.93;45.20;98852.34;5004931;28;20057;-46
2022/03/23 05:08:14;;;;;;;21.40;12.70;;;5.30;52.40;;;5.89;45.15;98854.38;5005363;28;20066;-44
2022/03/23 05:10:41;;;;;;;21.67;13.17;;;5.20;52.50;;;5.85;44.68;98852.84;5005948;28;20544;-46
2022/03/23 05:13:11;;;;;;;25.13;14.77;;;5.20;52.60;;;5.85;44.57;98865.22;5006531;28;20139;-46
2022/03/23 05:15:38;;;;;;;37.27;21.83;;;5.20;52.30;;;5.85;45.25;98867.88;5004932;28;20054;-45
2022/03/23 05:18:07;;;;;;;26.00;15.40;;;5.20;52.50;;;5.85;45.07;98867.88;5004337;28;20046;-44
2022/03/23 05:20:35;;;;;;;25.40;15.33;;;5.20;52.50;;;5.83;45.12;98867.13;5005731;28;20243;-44
2022/03/23 05:23:03;;;;;;;23.27;12.73;;;5.20;52.40;;;5.79;44.46;98860.34;5005938;28;20153;-44
2022/03/23 05:25:31;;;;;;;23.20;13.13;;;5.10;52.80;;;5.73;45.45;98856.31;5006259;28;20056;-45
2022/03/23 05:27:59;;;;;;;25.97;14.30;;;5.00;53.00;;;5.72;44.65;98857.28;5004143;28;20050;-44
2022/03/23 05:30:27;;;;;;;19.63;12.10;;;5.00;53.40;;;5.67;45.15;98865.50;5005812;28;20064;-43
2022/03/23 05:32:54;;;;;;;21.20;13.27;;;4.90;53.50;;;5.64;45.07;98864.84;5004230;28;20041;-44
2022/03/23 05:35:22;;;;;;;21.43;12.37;;;4.90;53.50;;;5.61;44.94;98865.91;5005620;28;20149;-45
2022/03/23 05:37:50;;;;;;;17.73;12.87;;;4.90;53.40;;;5.59;45.06;98872.25;5005182;28;20080;-45
2022/03/23 05:40:20;;;;;;;22.07;12.50;;;4.90;53.60;;;5.57;45.43;98861.78;5003338;28;20058;-44
2022/03/23 05:42:48;;;;;;;23.07;12.77;;;4.90;53.70;;;5.59;45.69;98864.31;5006216;28;20133;-44
2022/03/23 05:45:21;;;;;;;21.05;12.65;;;4.90;53.50;;;5.63;44.66;98866.66;5004842;28;20056;-44
2022/03/23 05:47:52;;;;;;;20.10;11.93;;;5.00;53.30;;;5.63;45.97;98869.28;5003607;28;20821;-44
2022/03/23 05:50:20;;;;;;;19.40;12.00;;;5.00;53.20;;;5.63;46.14;98868.44;5005015;28;20071;-44
2022/03/23 05:52:48;;;;;;;19.17;11.47;;;5.00;53.30;;;5.63;45.75;98871.94;5005281;28;20062;-45
2022/03/23 05:55:16;;;;;;;22.13;12.07;;;5.00;53.50;;;5.62;46.14;98867.63;5005786;28;20056;-44
2022/03/23 05:57:44;;;;;;;18.57;11.90;;;4.90;53.30;;;5.63;45.38;98871.94;5004401;28;20076;-47
2022/03/23 06:00:13;;;;;;;22.43;12.47;;;5.00;53.30;;;5.59;45.61;98874.88;4986796;28;20061;-44
2022/03/23 06:02:41;;;;;;;20.17;10.90;;;5.00;53.60;;;5.53;45.69;98876.97;5005382;28;20056;-46
2022/03/23 06:05:10;;;;;;;17.97;11.43;;;4.90;53.50;;;5.56;45.91;98880.34;5004823;28;20050;-45
2022/03/23 06:07:39;;;;;;;18.07;11.07;;;4.90;53.70;;;5.59;46.12;98888.09;5003521;28;20076;-44
2022/03/23 06:10:07;;;;;;;17.37;11.13;;;5.00;53.60;;;5.66;45.60;98889.38;5004896;28;20328;-44
2022/03/23 06:12:36;;;;;;;22.57;11.77;;;5.20;53.40;;;5.74;45.95;98892.38;5005063;28;20229;-45
2022/03/23 06:15:07;;;;;;;17.80;12.50;;;5.30;53.30;;;5.83;46.39;98894.41;5004569;28;20057;-47
2022/03/23 06:17:36;;;;;;;20.57;13.37;;;5.40;53.20;;;5.87;45.80;98895.03;5002981;28;20056;-45
2022/03/23 06:20:05;;;;;;;20.23;13.57;;;5.50;52.80;;;5.87;45.80;98892.41;5005154;28;20088;-44
2022/03/23 06:22:33;;;;;;;21.60;14.03;;;5.40;53.30;;;5.88;45.63;98904.69;5004723;28;20517;-44
2022/03/23 06:25:02;;;;;;;22.70;14.87;;;5.40;53.30;;;5.89;45.75;98895.78;5004943;28;20046;-44
2022/03/23 06:27:29;;;;;;;21.77;14.23;;;5.40;53.30;;;5.89;45.85;98899.31;5004013;28;20064;-45
2022/03/23 06:29:57;;;;;;;24.13;14.77;;;5.40;53.60;;;5.90;46.54;98902.78;5006062;28;20645;-48
2022/03/23 06:32:25;;;;;;;25.03;14.10;;;5.30;53.70;;;5.91;46.50;98902.69;5007561;28;20045;-45
2022/03/23 06:34:53;;;;;;;22.57;14.10;;;5.40;54.00;;;5.91;46.20;98902.69;5007719;28;20073;-46
2022/03/23 06:37:21;;;;;;;19.23;12.83;;;5.40;54.00;;;5.97;46.42;98906.75;5007934;28;20056;-46
2022/03/23 06:39:49;;;;;;;19.03;12.73;;;5.50;53.80;;;6.00;46.02;98911.00;5007625;28;20050;-46
2022/03/23 06:42:16;;;;;;;21.70;13.37;;;5.50;52.80;;;6.00;45.44;98914.47;5008284;28;20090;-43
2022/03/23 06:44:45;;;;;;;20.33;13.13;;;5.60;53.00;;;6.02;46.41;98912.56;5008331;28;20068;-43
2022/03/23 06:47:12;;;;;;;22.97;13.20;;;5.60;53.10;;;6.05;46.63;98911.53;5009096;28;20056;-44
2022/03/23 06:49:40;;;;;;;19.53;12.27;;;5.60;53.20;;;6.12;46.19;98920.75;5007758;28;20054;-44
2022/03/23 06:52:09;;;;;;;18.83;11.57;;;5.70;52.90;;;6.20;45.71;98923.72;5007128;28;20054;-43
2022/03/23 06:54:37;;;;;;;18.93;11.33;;;5.80;52.20;;;6.27;46.37;98918.88;5006834;28;20343;-45
2022/03/23 06:57:04;;;;;;;21.87;12.50;;;5.90;52.20;;;6.30;45.43;98930.09;5007164;28;20057;-43
2022/03/23 06:59:32;;;;;;;23.60;13.53;;;5.90;52.10;;;6.35;45.47;98923.66;5007752;28;20054;-44
2022/03/23 07:02:00;;;;;;;19.43;13.20;;;6.00;52.10;;;6.37;46.09;98927.03;5008096;28;20068;-45
2022/03/23 07:04:28;;;;;;;19.93;13.50;;;6.00;52.30;;;6.40;46.13;98927.69;5005537;28;20129;-44
2022/03/23 07:06:56;;;;;;;24.33;12.83;;;6.00;52.30;;;6.41;46.11;98932.00;5008953;28;20287;-47
2022/03/23 07:09:34;;;;;;;17.90;12.00;;;6.00;52.30;;;6.44;45.77;98931.81;5007093;28;20048;-45
2022/03/23 07:12:09;;;;;;;18.50;11.83;;;6.10;52.30;;;6.45;46.07;98936.16;5007163;28;20064;-44
2022/03/23 07:14:40;;;;;;;17.40;12.33;;;6.10;52.90;;;6.49;45.69;98935.00;5007695;28;20062;-44
2022/03/23 07:17:08;;;;;;;17.63;11.27;;;6.10;52.90;;;6.57;46.21;98942.44;5008160;28;20257;-45
2022/03/23 07:19:36;;;;;;;16.90;11.83;;;6.30;52.70;;;6.66;46.27;98943.59;5007873;28;20058;-46
2022/03/23 07:22:05;;;;;;;21.27;11.50;;;6.40;52.20;;;6.75;46.17;98939.47;5007056;28;20060;-44
2022/03/23 07:24:33;;;;;;;20.80;13.53;;;6.50;52.00;;;6.81;46.07;98936.41;5007265;28;20060;-44
2022/03/23 07:27:07;;;;;;;;;;;6.50;51.80;;;6.84;45.60;98946.75;5007653;28;20128;-45
2022/03/23 07:29:50;;;;;;;20.17;12.27;;;6.60;52.10;;;6.94;45.79;98939.91;5007788;28;19925;-43
2022/03/23 07:32:18;;;;;;;24.33;13.07;;;6.70;51.80;;;7.02;46.37;98947.31;5007107;28;20062;-44
2022/03/23 07:34:46;;;;;;;23.73;15.40;;;6.80;52.30;;;7.08;46.34;98947.72;5006444;28;20050;-43
2022/03/23 07:37:14;;;;;;;21.40;14.57;;;6.90;53.00;;;7.15;46.27;98956.06;5007654;28;20610;-45
2022/03/23 07:39:43;;;;;;;25.37;15.10;;;6.90;53.20;;;7.22;46.95;98961.78;5005922;28;20050;-44
2022/03/23 07:42:11;;;;;;;21.67;13.90;;;7.00;53.60;;;7.28;46.34;98956.91;5006332;28;20062;-47
2022/03/23 07:44:39;;;;;;;24.63;15.30;;;7.10;54.10;;;7.34;46.58;98963.56;5006037;28;20056;-46
2022/03/23 07:47:10;;;;;;;22.07;15.10;;;7.10;54.20;;;7.41;46.75;98966.66;5005938;28;20046;-45
2022/03/23 07:49:40;;;;;;;24.57;15.10;;;7.20;54.40;;;7.46;47.31;98964.50;5006645;28;20056;-45
2022/03/23 07:52:09;;;;;;;23.27;16.33;;;7.30;54.90;;;7.53;47.55;98965.75;5006118;28;20552;-44
2022/03/23 07:54:37;;;;;;;25.73;14.73;;;7.40;54.60;;;7.62;47.40;98962.47;5004999;28;20053;-46
2022/03/23 07:57:05;;;;;;;25.47;16.23;;;7.50;54.80;;;7.68;47.62;98967.31;5007503;28;20049;-46
2022/03/23 07:59:34;;;;;;;24.33;15.20;;;7.60;54.70;;;7.75;47.60;98974.81;5004794;28;20073;-44
2022/03/23 08:02:02;;;;;;;23.33;14.40;;;7.60;54.80;;;7.81;47.67;98969.94;5007239;28;20227;-42
2022/03/23 08:04:30;;;;;;;22.57;15.50;;;7.70;54.90;;;7.87;47.86;98971.28;5005189;28;20083;-44
2022/03/23 08:07:02;;;;;;;21.27;15.03;;;7.70;54.90;;;7.93;47.60;98968.19;5005439;28;20064;-44
2022/03/23 08:09:30;;;;;;;22.13;13.83;;;7.80;54.90;;;7.96;47.52;98975.91;5006397;28;20060;-43
2022/03/23 08:11:59;;;;;;;20.83;13.53;;;7.80;53.10;;;8.01;46.53;98972.94;5005843;28;20080;-45
2022/03/23 08:14:29;;;;;;;23.13;13.20;;;7.90;52.20;;;8.00;45.90;98979.19;5005698;28;20050;-41
2022/03/23 08:16:57;;;;;;;21.93;14.80;;;7.90;51.20;;;8.06;45.76;98987.56;5006439;28;20065;-42
2022/03/23 08:19:25;;;;;;;20.43;13.00;;;8.00;51.40;;;8.14;45.95;98981.66;5005429;28;20268;-42
2022/03/23 08:21:53;;;;;;;19.43;12.33;;;8.10;50.90;;;8.20;45.34;98986.53;5005386;28;20058;-42
2022/03/23 08:24:21;;;;;;;20.03;13.37;;;8.10;50.30;;;8.21;45.09;98982.91;5005215;28;20117;-42
2022/03/23 08:26:49;;;;;;;18.97;12.87;;;8.20;49.60;;;8.26;45.11;98977.28;5006166;28;20055;-41
2022/03/23 08:29:17;;;;;;;16.97;12.33;;;8.20;49.80;;;8.32;44.94;98981.25;5006119;28;20056;-43
2022/03/23 08:31:45;;;;;;;15.60;11.50;;;8.30;49.20;;;8.22;43.04;98978.44;5008050;28;20237;-42
2022/03/23 08:34:13;;;;;;;20.27;12.87;;;8.30;46.90;;;8.18;44.03;98982.28;5005808;28;20056;-42
2022/03/23 08:36:41;;;;;;;20.03;12.37;;;8.30;48.00;;;8.27;44.25;98979.78;5005544;28;20049;-43
2022/03/23 08:39:11;;;;;;;17.07;12.07;;;8.30;48.00;;;8.16;44.50;98984.22;5014459;28;20045;-43
2022/03/23 08:41:45;;;;;;;20.03;12.37;;;8.30;48.80;;;8.33;44.66;98986.44;5018051;28;20057;-42
2022/03/23 08:44:13;;;;;;;20.17;12.87;;;8.40;49.20;;;8.42;44.53;98984.97;5035226;28;20056;-42
2022/03/23 08:46:40;;;;;;;20.63;13.77;;;8.50;49.50;;;8.45;45.18;98980.28;5035152;28;20041;-43
2022/03/23 08:49:08;;;;;;;23.87;13.90;;;8.50;49.80;;;8.41;45.23;98985.88;5037863;28;20063;-43
2022/03/23 08:51:36;;;;;;;21.43;14.07;;;8.60;49.80;;;8.53;45.48;98981.50;5035939;28;20041;-43
2022/03/23 08:54:04;;;;;;;24.37;15.37;;;8.60;50.20;;;8.59;45.13;98975.75;5034523;28;20055;-43
2022/03/23 08:56:32;;;;;;;21.70;14.63;;;8.70;50.20;;;8.66;45.71;98971.66;5036936;28;20049;-44
2022/03/23 08:59:01;;;;;;;20.87;13.50;;;8.80;50.70;;;8.67;45.41;98976.84;5014954;28;20119;-44
2022/03/23 09:01:29;;;;;;;23.83;14.93;;;8.80;49.90;;;8.75;44.87;98970.94;5043233;28;20045;-42
2022/03/23 09:04:01;;;;;;;27.27;16.27;;;8.90;49.10;;;8.82;45.10;98971.31;5040706;28;20055;-42
2022/03/23 09:06:28;;;;;;;23.00;15.53;;;9.10;49.50;;;8.93;44.68;98970.50;5037140;28;20068;-42
2022/03/23 09:08:56;;;;;;;20.33;13.37;;;9.20;48.40;;;9.03;44.14;98969.69;5036452;28;20063;-43
2022/03/23 09:11:24;;;;;;;21.00;14.67;;;9.20;46.80;;;9.13;44.11;98968.94;5037477;28;20041;-44
2022/03/23 09:13:52;;;;;;;23.80;14.23;;;9.30;47.90;;;9.18;44.21;98972.09;5035111;28;20041;-44
2022/03/23 09:16:20;;;;;;;20.53;14.43;;;9.40;48.30;;;9.26;43.64;98965.19;5034201;28;20080;-44
2022/03/23 09:18:47;;;;;;;23.23;14.77;;;9.50;47.30;;;9.37;43.98;98961.72;5028620;28;20522;-44
2022/03/23 09:21:16;;;;;;;23.67;13.80;;;9.50;47.80;;;9.41;44.19;98968.47;5026509;28;20083;-42
2022/03/23 09:23:44;;;;;;;23.13;14.77;;;9.60;48.40;;;9.50;44.21;98964.25;5024473;28;20068;-43
2022/03/23 09:26:12;;;;;;;18.80;12.60;;;9.70;48.20;;;9.60;44.45;98967.84;5025555;28;20104;-43
2022/03/23 09:28:40;;;;;;;20.37;14.40;;;9.80;48.30;;;9.62;43.30;98962.44;5025317;28;20049;-42
2022/03/23 09:31:08;;;;;;;24.73;14.40;;;9.80;46.80;;;9.73;43.42;98966.88;5025862;28;20056;-42
2022/03/23 09:33:36;;;;;;;22.53;14.80;;;10.00;46.80;;;9.83;43.89;98966.00;5025766;28;20241;-42
2022/03/23 09:36:04;;;;;;;20.90;14.80;;;10.00;47.70;;;9.89;43.58;98967.34;5025100;28;20057;-43
2022/03/23 09:38:32;;;;;;;20.23;14.00;;;10.10;47.30;;;9.99;43.30;98959.44;5024929;28;20055;-43
2022/03/23 09:41:00;;;;;;;20.33;12.57;;;10.20;47.30;;;10.09;43.25;98962.19;5024189;28;20068;-42
2022/03/23 09:43:29;;;;;;;18.40;14.50;;;10.20;47.30;;;10.12;43.21;98967.25;5025803;28;20057;-43
2022/03/23 09:45:57;;;;;;;23.17;13.80;;;10.30;46.80;;;10.20;43.32;98963.00;5022747;28;20056;-46
2022/03/23 09:48:29;;;;;;;19.87;13.77;;;10.40;47.00;;;10.31;43.23;98964.78;5025337;28;20109;-43
2022/03/23 09:50:57;;;;;;;20.67;14.47;;;10.50;46.80;;;10.39;42.89;98958.81;5024343;28;20053;-43
2022/03/23 09:53:25;;;;;;;22.40;14.50;;;10.60;46.30;;;10.49;42.64;98958.91;5025130;28;20046;-45
2022/03/23 09:55:53;;;;;;;20.17;14.33;;;10.60;44.70;;;10.51;42.40;98949.84;5025526;28;20056;-43
2022/03/23 09:58:22;;;;;;;17.87;12.93;;;10.70;45.90;;;10.56;42.77;98960.91;5023257;28;20076;-42
2022/03/23 10:00:50;;;;;;;22.20;14.83;;;10.80;45.90;;;10.63;43.04;98956.78;5025316;28;20065;-42
2022/03/23 10:04:08;;;;;;;19.93;13.83;;;10.90;46.50;;;10.69;41.85;98957.25;5022424;28;20057;-43
2022/03/23 10:07:04;;;;;;;20.13;13.43;;;10.90;46.50;;;10.82;42.23;98952.56;5022913;28;20071;-43
2022/03/23 10:10:24;;;;;;;20.70;13.33;;;11.10;45.20;;;10.93;40.81;98956.97;5024129;28;20497;-43
2022/03/23 10:13:48;;;;;;;16.77;12.43;;;11.10;44.40;;;11.06;41.72;98960.25;5023392;28;20060;-43
2022/03/23 10:17:12;;;;;;;18.23;13.53;;;11.20;43.50;;;11.14;41.03;98957.78;5024636;28;20053;-43
2022/03/23 10:19:44;;;;;;;21.10;12.37;;;11.30;42.70;;;11.20;40.41;98943.91;5024282;28;20628;-43
2022/03/23 10:22:14;;;;;;;15.43;11.70;;;11.30;42.80;;;11.27;40.23;98954.06;5020214;28;20057;-44
2022/03/23 10:24:43;;;;;;;13.07;11.27;;;11.40;42.50;;;11.32;39.47;98949.16;5022758;28;20045;-44
2022/03/23 10:27:17;;;;;;;16.88;11.38;;;11.50;41.70;;;11.39;37.91;98944.97;5023487;28;20071;-46
2022/03/23 10:29:48;;;;;;;21.85;13.38;;;11.50;40.30;;;11.48;37.76;98946.00;5024238;28;20053;-45
2022/03/23 10:32:17;;;;;;;15.83;11.27;;;11.60;40.40;;;11.58;37.79;98944.22;5024736;28;20057;-43
2022/03/23 10:34:51;;;;;;;13.37;10.97;;;11.70;39.80;;;11.66;37.14;98940.88;5023397;28;20163;-44
2022/03/23 10:37:28;;;;;;;15.20;10.52;;;11.70;38.50;;;11.71;35.22;98938.59;5022687;28;20053;-45